Bellingham, WA

10:47 AM PDT on October 19, 2018 (GMT -0700)
Bellingham Sunnyland | | Change Station

Elev 59 ft 48.75 °N, 122.47 °W | Updated 1 minute ago

Fog
Fog
48.4 °F
Feels Like 48 °F
N
0.9
Wind Variable Wind from ESE
Gusts 1.0 mph

Today
High -- | Low -- °F
--% Chance of Precip.
Yesterday
High -- | Low -- °F
Precip. -- in
Pressure 30.30 in
Visibility 0.2 miles
Clouds
Windchill 48 °F
Dew Point 48 °F
Humidity 97%
Rainfall 0.00 in
Snow Depth Not available.
7:36 AM 6:12 PM
Waxing Gibbous, 77% visible
METAR KBLI 191453Z 00000KT M1/4SM R16/0700V0800FT FG VV001 07/06 A3028 RMK AO2 SLP260 T00720061 51009
Pressure 30.30 in
Visibility 0.2 miles
Clouds
Windchill 48 °F
Dew Point 48 °F
Humidity 97%
Rainfall 0.00 in
Snow Depth Not available.
7:36 AM 6:12 PM
Waxing Gibbous, 77% visible
METAR KBLI 191453Z 00000KT M1/4SM R16/0700V0800FT FG VV001 07/06 A3028 RMK AO2 SLP260 T00720061 51009

Get Severe Weather Alerts

Thanks for signing up!

Be on the lookout for a verification email in your inbox.

You'll start receiving the daily forecast at 6 AM.

×

10-Day Weather Forecast

Almanac

Astronomy

Oct. 19, 2018 Rise Set
Actual Time
Civil Twilight
Nautical Twilight
Astronomical Twilight
Moon
Length of Visible Light
Length of Day
Tomorrow will be .
, % of the Moon is Illuminated

Today's Extremes

State Highs State Lows

Community

WunderPhotos

Category 6

Welcome to Category 6. This is the collective home for Weather Underground's featured writeups by Dr. Jeff Masters (right), Bob Henson (left), Chris Burt, and other regular contributors.

Nearby

Air Quality

  Air Quality AQ Index Pollutant
Not available.

Snow Depth

Station Depth Elevation

Earthquake Activity

City Distance Mag. Time & Date
Minimum magnitude displayed is 2.5.

Coastal Water Temperatures

Place Temperature

Stations

Nearby Weather Stations

Station Location Temp. Windchill Dew Point Humidity Wind Precip. Elev Updated Type
                   

Watches & Warnings

There are currently no watches in effect.